Time;durP1;ratioP1;P1;durP2;ratioP2;P2;SDS_P1;SDS_P2;PMS_P1;PMS_P2;Temp;Humidity;BMP_temperature;BMP_pressure;BME280_temperature;BME280_humidity;BME280_pressure;Samples;Min_cycle;Max_cycle;Signal;HPM_P1;HPM_P2
2023/09/12 00:02:05;;;;;;;12.52;11.23;;;;;;;19.41;100.00;99301.59;5013024;28;20045;-89
2023/09/12 00:04:31;;;;;;;13.07;11.77;;;;;;;19.38;100.00;99296.56;5012982;28;20037;-89
2023/09/12 00:06:56;;;;;;;12.93;11.63;;;;;;;19.40;100.00;99303.41;5012970;28;20120;-90
2023/09/12 00:09:22;;;;;;;12.98;11.77;;;;;;;19.34;100.00;99298.69;5012988;28;20165;-90
2023/09/12 00:11:47;;;;;;;14.15;12.13;;;;;;;19.36;100.00;99309.94;5029430;28;20034;-89
2023/09/12 00:14:16;;;;;;;13.95;11.63;;;;;;;19.27;100.00;99299.34;5044670;28;20072;-89
2023/09/12 00:16:42;;;;;;;12.57;11.23;;;;;;;19.30;100.00;99307.84;5050568;28;20025;-90
2023/09/12 00:19:07;;;;;;;15.27;12.63;;;;;;;19.32;100.00;99305.06;5066913;28;20608;-89
2023/09/12 00:21:33;;;;;;;13.50;11.63;;;;;;;19.31;100.00;99304.22;5067126;28;20048;-90
2023/09/12 00:23:58;;;;;;;14.70;12.70;;;;;;;19.28;100.00;99301.84;5050304;28;20483;-90
2023/09/12 00:26:23;;;;;;;13.68;12.27;;;;;;;19.27;100.00;99297.53;5050642;28;20048;-90
2023/09/12 00:28:49;;;;;;;14.43;12.90;;;;;;;19.15;100.00;99285.41;5067136;28;20029;-89
2023/09/12 00:31:14;;;;;;;14.32;12.52;;;;;;;19.25;100.00;99298.63;5066968;28;20033;-89
2023/09/12 00:33:39;;;;;;;14.15;12.48;;;;;;;19.18;100.00;99288.63;5050385;28;20029;-89
2023/09/12 00:36:05;;;;;;;13.52;12.07;;;;;;;19.11;100.00;99287.50;5050003;28;20028;-90
2023/09/12 00:38:30;;;;;;;13.57;12.23;;;;;;;19.16;100.00;99298.47;5050500;28;20025;-89
2023/09/12 00:40:55;;;;;;;13.25;11.70;;;;;;;19.02;100.00;99282.19;5066818;28;20028;-89
2023/09/12 00:43:21;;;;;;;13.70;12.30;;;;;;;18.92;100.00;99264.53;5050404;28;20064;-89
2023/09/12 00:45:46;;;;;;;14.98;11.88;;;;;;;19.07;100.00;99299.28;5050350;28;20268;-90
2023/09/12 00:48:13;;;;;;;13.48;12.07;;;;;;;18.93;100.00;99276.75;5050070;28;20029;-89
2023/09/12 00:50:39;;;;;;;13.85;11.95;;;;;;;18.92;100.00;99277.72;5051890;28;20032;-89
2023/09/12 00:53:05;;;;;;;14.35;12.85;;;;;;;18.97;100.00;99292.31;5054089;28;20510;-90
2023/09/12 00:55:34;;;;;;;17.15;13.10;;;;;;;18.69;100.00;99265.66;5054087;28;20072;-89
2023/09/12 00:58:01;;;;;;;14.63;13.23;;;;;;;18.86;100.00;99290.59;5053810;28;20039;-89
2023/09/12 01:00:26;;;;;;;14.00;12.57;;;;;;;18.85;100.00;99296.84;5054028;28;20476;-89
2023/09/12 01:02:53;;;;;;;15.13;12.38;;;;;;;18.70;100.00;99275.25;5070697;28;20032;-89
2023/09/12 01:05:20;;;;;;;13.60;12.23;;;;;;;18.77;100.00;99288.75;5054104;28;20029;-90
2023/09/12 01:07:46;;;;;;;13.60;11.90;;;;;;;18.75;100.00;99295.97;5054132;28;20476;-89
2023/09/12 01:10:12;;;;;;;13.65;12.25;;;;;;;18.67;100.00;99283.41;5053646;28;20029;-89
2023/09/12 01:12:37;;;;;;;15.52;12.55;;;;;;;18.72;100.00;99293.59;5053868;28;20167;-89
2023/09/12 01:15:08;;;;;;;16.15;13.93;;;;;;;18.68;100.00;99295.63;5070273;28;20032;-89
2023/09/12 01:17:33;;;;;;;15.02;12.88;;;;;;;18.63;100.00;99288.13;5053673;28;20076;-90
2023/09/12 01:20:00;;;;;;;14.85;12.70;;;;;;;18.49;100.00;99277.91;5053316;28;20480;-89
2023/09/12 01:22:57;;;;;;;13.45;11.90;;;;;;;18.56;100.00;99291.41;5053757;28;20027;-89
2023/09/12 01:26:00;;;;;;;13.73;12.32;;;;;;;18.37;100.00;99263.13;5053549;28;20031;-89
2023/09/12 01:28:30;;;;;;;14.88;13.15;;;;;;;18.48;100.00;99283.31;5053789;28;20381;-89
2023/09/12 01:30:57;;;;;;;15.38;13.88;;;;;;;18.37;100.00;99278.94;5053372;28;20039;-90
2023/09/12 01:33:22;;;;;;;15.30;13.65;;;;;;;18.48;100.00;99289.41;5053339;28;20075;-89
2023/09/12 01:35:48;;;;;;;15.40;12.73;;;;;;;18.47;100.00;99289.56;5070038;28;20037;-89
2023/09/12 01:38:14;;;;;;;16.88;13.90;;;;;;;18.43;100.00;99284.53;5053092;28;20060;-89
2023/09/12 01:40:47;;;;;;;14.18;12.77;;;;;;;18.46;100.00;99291.38;5053162;28;20067;-90
2023/09/12 01:43:18;;;;;;;15.45;13.23;;;;;;;18.41;100.00;99290.91;5053123;28;20103;-88
2023/09/12 01:45:53;;;;;;;15.75;13.98;;;;;;;18.40;100.00;99292.69;5053240;28;20033;-90
2023/09/12 01:48:21;;;;;;;17.45;13.50;;;;;;;18.37;100.00;99292.97;5052951;28;20029;-89
2023/09/12 01:50:48;;;;;;;15.57;13.43;;;;;;;18.27;100.00;99283.31;5054351;28;20112;-89
2023/09/12 01:53:16;;;;;;;17.48;14.35;;;;;;;18.03;100.00;99247.50;5052688;28;20502;-89
2023/09/12 01:55:43;;;;;;;16.00;13.35;;;;;;;18.16;100.00;99294.75;5052978;28;20389;-89
2023/09/12 01:58:08;;;;;;;14.38;12.98;;;;;;;18.12;100.00;99288.94;5054258;28;20025;-89
2023/09/12 02:00:34;;;;;;;15.05;13.65;;;;;;;18.15;100.00;99293.09;5052966;28;20033;-89
2023/09/12 02:03:03;;;;;;;15.02;13.52;;;;;;;18.15;100.00;99293.94;5051975;28;20057;-89
2023/09/12 02:05:28;;;;;;;14.80;12.85;;;;;;;18.15;100.00;99293.94;5052676;28;20052;-90
2023/09/12 02:07:53;;;;;;;15.45;13.70;;;;;;;18.07;100.00;99288.47;5052766;28;20472;-90
2023/09/12 02:10:19;;;;;;;16.98;13.20;;;;;;;18.07;100.00;99287.63;5052583;28;20123;-89
2023/09/12 02:12:44;;;;;;;15.40;13.80;;;;;;;17.86;100.00;99270.00;5069528;28;20053;-89
2023/09/12 02:15:10;;;;;;;15.73;13.80;;;;;;;18.00;100.00;99294.38;5052608;28;20033;-89
2023/09/12 02:17:35;;;;;;;15.93;14.25;;;;;;;17.75;100.00;99254.25;5052608;28;20028;-89
2023/09/12 02:20:01;;;;;;;16.17;14.48;;;;;;;17.94;100.00;99291.28;5068793;28;20439;-89
2023/09/12 02:22:26;;;;;;;15.00;13.50;;;;;;;17.91;100.00;99290.72;5069065;28;20366;-89
2023/09/12 02:24:51;;;;;;;15.95;14.23;;;;;;;17.78;100.00;99272.47;5052473;28;20036;-89
2023/09/12 02:27:17;;;;;;;15.00;13.43;;;;;;;17.86;100.00;99290.25;5052358;28;20056;-89
2023/09/12 02:29:42;;;;;;;17.25;13.27;;;;;;;17.83;100.00;99288.72;5069232;28;20120;-88
2023/09/12 02:32:08;;;;;;;16.65;14.30;;;;;;;17.85;100.00;99289.41;5052222;28;20029;-89
2023/09/12 02:34:34;;;;;;;16.55;13.40;;;;;;;17.83;100.00;99293.16;5052387;28;20033;-89
2023/09/12 02:36:59;;;;;;;16.13;14.38;;;;;;;17.67;100.00;99275.94;5051922;28;20094;-89
2023/09/12 02:39:25;;;;;;;14.70;13.30;;;;;;;17.69;100.00;99294.22;5052274;28;20025;-89
2023/09/12 02:41:50;;;;;;;14.75;12.98;;;;;;;17.62;100.00;99291.28;5052206;28;20025;-89
2023/09/12 02:44:16;;;;;;;16.15;14.45;;;;;;;17.62;100.00;99285.19;5051843;28;20064;-89
2023/09/12 02:46:41;;;;;;;15.52;13.90;;;;;;;17.56;100.00;99275.13;5052095;28;20025;-89
2023/09/12 02:49:07;;;;;;;16.35;14.38;;;;;;;17.65;100.00;99298.91;5051834;28;20033;-90
2023/09/12 02:51:32;;;;;;;18.17;16.00;;;;;;;17.57;100.00;99297.84;5068602;28;20025;-89
2023/09/12 02:53:57;;;;;;;17.05;14.40;;;;;;;17.52;100.00;99300.03;5052060;28;20520;-89
2023/09/12 02:56:23;;;;;;;15.98;14.25;;;;;;;17.40;100.00;99272.88;5068341;28;20447;-89
2023/09/12 02:58:49;;;;;;;16.98;15.20;;;;;;;17.52;100.00;99297.41;5051666;28;20101;-90
2023/09/12 03:01:19;;;;;;;16.58;14.13;;;;;;;17.50;100.00;99299.34;5051487;28;20044;-90
2023/09/12 03:03:49;;;;;;;15.80;14.18;;;;;;;17.50;100.00;99301.97;5051624;28;20103;-89
2023/09/12 03:06:15;;;;;;;18.65;15.10;;;;;;;17.46;100.00;99290.84;5051831;28;20021;-89
2023/09/12 03:08:41;;;;;;;18.42;15.77;;;;;;;17.51;100.00;99295.72;5051844;28;20508;-89
2023/09/12 03:11:07;;;;;;;15.73;14.00;;;;;;;17.45;100.00;99292.63;5051687;28;20187;-90
2023/09/12 03:13:33;;;;;;;17.58;15.05;;;;;;;17.40;100.00;99300.06;5050650;28;20029;-90
2023/09/12 03:15:59;;;;;;;17.23;15.45;;;;;;;17.40;100.00;99294.81;5051560;28;20048;-89
2023/09/12 03:18:25;;;;;;;17.92;16.02;;;;;;;17.35;100.00;99298.75;5051052;28;20479;-90
2023/09/12 03:20:50;;;;;;;16.35;14.50;;;;;;;17.33;100.00;99303.31;5051850;28;20507;-90
2023/09/12 03:23:15;;;;;;;17.40;15.50;;;;;;;17.35;100.00;99302.22;5068038;28;20029;-91
2023/09/12 03:25:41;;;;;;;17.48;15.15;;;;;;;17.30;100.00;99304.38;5068156;28;20410;-89
2023/09/12 03:28:07;;;;;;;16.50;14.80;;;;;;;17.21;100.00;99291.97;5067729;28;20024;-90
2023/09/12 03:30:34;;;;;;;17.10;14.82;;;;;;;17.21;100.00;99299.88;5051242;28;20041;-90
2023/09/12 03:32:59;;;;;;;19.48;16.95;;;;;;;17.18;100.00;99303.56;5051178;28;20032;-90
2023/09/12 03:35:25;;;;;;;18.45;16.42;;;;;;;17.21;100.00;99308.59;5050880;28;20029;-90
2023/09/12 03:37:50;;;;;;;20.42;16.10;;;;;;;17.12;100.00;99292.72;5051230;28;20021;-89
2023/09/12 03:40:16;;;;;;;23.33;16.85;;;;;;;17.20;100.00;99299.03;5050933;28;20431;-90
2023/09/12 03:42:41;;;;;;;18.42;16.50;;;;;;;17.00;100.00;99281.34;5067823;28;20033;-89
2023/09/12 03:45:07;;;;;;;18.45;16.42;;;;;;;17.17;100.00;99303.69;5052332;28;20036;-90
2023/09/12 03:47:32;;;;;;;18.90;17.00;;;;;;;17.12;100.00;99295.34;5050965;28;20020;-89
2023/09/12 03:49:58;;;;;;;18.58;16.45;;;;;;;17.15;100.00;99298.56;5051058;28;20125;-90
2023/09/12 03:52:23;;;;;;;17.73;15.95;;;;;;;17.12;100.00;99304.06;5050821;28;20036;-90
2023/09/12 03:54:49;;;;;;;19.73;17.00;;;;;;;17.10;100.00;99305.13;5050802;28;20037;-90
2023/09/12 03:57:14;;;;;;;21.45;17.65;;;;;;;17.07;100.00;99295.72;5050537;28;20045;-89
2023/09/12 03:59:39;;;;;;;20.55;17.60;;;;;;;17.09;100.00;99309.56;5050812;28;20059;-89
2023/09/12 04:02:05;;;;;;;20.55;17.80;;;;;;;17.09;100.00;99300.84;5067214;28;20032;-89
2023/09/12 04:04:30;;;;;;;19.75;17.60;;;;;;;17.08;100.00;99302.63;5050723;28;20029;-89
2023/09/12 04:06:55;;;;;;;25.05;18.02;;;;;;;17.08;100.00;99301.81;5050980;28;20468;-90
2023/09/12 04:09:21;;;;;;;20.63;18.48;;;;;;;16.97;100.00;99276.31;5050494;28;20036;-90
2023/09/12 04:11:46;;;;;;;20.42;17.88;;;;;;;17.04;100.00;99295.94;5067418;28;20033;-88
2023/09/12 04:14:14;;;;;;;20.17;18.10;;;;;;;17.01;100.00;99298.81;5050370;28;20108;-90
2023/09/12 04:16:39;;;;;;;20.90;18.70;;;;;;;16.95;100.00;99297.50;5050534;28;20037;-90
2023/09/12 04:19:05;;;;;;;20.33;17.42;;;;;;;17.02;100.00;99305.72;5066947;28;20484;-90
2023/09/12 04:21:30;;;;;;;20.27;18.00;;;;;;;16.78;100.00;99269.06;5067311;28;20094;-90
2023/09/12 04:23:55;;;;;;;25.38;18.73;;;;;;;16.88;100.00;99293.66;5050668;28;20029;-89
2023/09/12 04:26:21;;;;;;;20.15;18.00;;;;;;;16.93;100.00;99304.66;5053364;28;20031;-89
2023/09/12 04:28:47;;;;;;;21.52;19.05;;;;;;;16.95;100.00;99307.19;5054507;28;20063;-89
2023/09/12 04:31:12;;;;;;;21.38;18.65;;;;;;;16.90;100.00;99293.56;5054190;28;20032;-90
2023/09/12 04:33:37;;;;;;;20.52;18.10;;;;;;;16.97;100.00;99313.16;5054057;28;20522;-89
2023/09/12 04:36:03;;;;;;;20.63;18.42;;;;;;;16.94;100.00;99300.25;5055701;28;20632;-90
2023/09/12 04:38:29;;;;;;;24.67;20.00;;;;;;;16.66;100.00;99259.47;5053877;28;20480;-89
2023/09/12 04:41:05;;;;;;;21.60;19.30;;;;;;;16.86;100.00;99290.34;5054274;28;20477;-90
2023/09/12 04:43:31;;;;;;;22.63;19.10;;;;;;;16.95;100.00;99302.75;5053844;28;20051;-89
2023/09/12 04:45:57;;;;;;;23.95;20.65;;;;;;;16.98;100.00;99306.97;5053922;28;20477;-89
2023/09/12 04:48:22;;;;;;;20.67;18.50;;;;;;;17.01;100.00;99306.69;5054088;28;20025;-89
2023/09/12 04:50:48;;;;;;;22.42;19.10;;;;;;;16.94;100.00;99295.84;5054267;28;20033;-89
2023/09/12 04:53:13;;;;;;;22.38;19.10;;;;;;;17.04;100.00;99308.25;5054068;28;20021;-89
2023/09/12 04:55:39;;;;;;;21.30;19.05;;;;;;;17.04;100.00;99295.94;5053956;28;20523;-89
2023/09/12 04:58:05;;;;;;;21.35;18.90;;;;;;;17.11;100.00;99299.78;5070881;28;20067;-90
2023/09/12 05:00:31;;;;;;;24.48;20.08;;;;;;;17.21;100.00;99303.31;5053112;28;20492;-87
2023/09/12 05:02:56;;;;;;;21.48;19.27;;;;;;;17.09;100.00;99274.53;5054304;28;20036;-88
2023/09/12 05:05:22;;;;;;;23.05;20.05;;;;;;;17.32;100.00;99307.75;5054374;28;20024;-88
2023/09/12 05:07:47;;;;;;;22.80;19.40;;;;;;;17.37;100.00;99316.13;5053964;28;20029;-87
2023/09/12 05:10:13;;;;;;;23.15;20.45;;;;;;;17.43;100.00;99309.50;5053679;28;20029;-87
2023/09/12 05:12:38;;;;;;;22.02;18.92;;;;;;;17.48;100.00;99286.28;5053428;28;20035;-88
2023/09/12 05:15:04;;;;;;;21.80;19.50;;;;;;;17.74;100.00;99310.53;5053887;28;20036;-89
2023/09/12 05:17:29;;;;;;;21.05;18.77;;;;;;;17.95;100.00;99321.13;5053341;28;20518;-88
2023/09/12 05:19:55;;;;;;;22.10;19.08;;;;;;;18.09;100.00;99326.06;5053830;28;20476;-88
2023/09/12 05:22:20;;;;;;;21.80;19.60;;;;;;;18.31;100.00;99319.00;5053769;28;20028;-88
2023/09/12 05:24:46;;;;;;;23.30;20.90;;;;;;;18.40;100.00;99312.97;5053619;28;20570;-87
2023/09/12 05:27:11;;;;;;;24.88;21.10;;;;;;;18.63;100.00;99317.13;5053176;28;20031;-87
2023/09/12 05:29:37;;;;;;;21.98;19.40;;;;;;;18.92;100.00;99334.94;5053393;28;20033;-87
2023/09/12 05:32:03;;;;;;;23.52;21.10;;;;;;;19.16;100.00;99334.59;5051958;28;20037;-87
2023/09/12 05:34:29;;;;;;;22.70;20.08;;;;;;;19.33;100.00;99333.13;5051693;28;20044;-87
2023/09/12 05:36:54;;;;;;;27.73;19.65;;;;;;;19.45;100.00;99316.19;5034197;28;20041;-87
2023/09/12 05:39:20;;;;;;;21.38;19.15;;;;;;;19.77;100.00;99331.88;5035277;28;20029;-87
2023/09/12 05:41:45;;;;;;;22.35;19.15;;;;;;;19.94;100.00;99332.97;5035365;28;20127;-87
2023/09/12 05:44:12;;;;;;;21.63;18.52;;;;;;;20.13;100.00;99326.84;5051629;28;20063;-87
2023/09/12 05:46:38;;;;;;;21.33;19.00;;;;;;;20.25;100.00;99312.50;5035125;28;20086;-87
2023/09/12 05:49:03;;;;;;;20.35;18.25;;;;;;;20.40;100.00;99313.75;5052162;28;20041;-87
2023/09/12 05:51:30;;;;;;;20.75;18.50;;;;;;;20.51;100.00;99310.09;5034532;28;20166;-87
2023/09/12 05:53:55;;;;;;;21.65;18.67;;;;;;;20.78;100.00;99321.75;5051751;28;20029;-87
2023/09/12 05:56:20;;;;;;;23.17;18.38;;;;;;;20.91;100.00;99323.09;5051351;28;20053;-87
2023/09/12 05:58:46;;;;;;;22.05;18.42;;;;;;;21.10;100.00;99322.16;5051585;28;20055;-87
2023/09/12 06:01:11;;;;;;;18.48;16.48;;;;;;;21.23;100.00;99328.94;5034844;28;20519;-87
2023/09/12 06:03:37;;;;;;;19.73;17.73;;;;;;;21.39;100.00;99326.50;5052479;28;20040;-87
2023/09/12 06:06:02;;;;;;;20.17;16.95;;;;;;;21.48;100.00;99322.97;5054210;28;20032;-87
2023/09/12 06:08:28;;;;;;;19.30;16.65;;;;;;;21.58;100.00;99326.41;5052414;28;20108;-87
2023/09/12 06:10:54;;;;;;;18.63;16.63;;;;;;;21.86;100.00;99329.81;5052670;28;20083;-87
2023/09/12 06:13:19;;;;;;;21.50;16.80;;;;;;;21.97;99.97;99320.81;5031278;28;20041;-86
2023/09/12 06:15:45;;;;;;;19.73;17.50;;;;;;;21.87;99.39;99275.81;5031487;28;20088;-87
2023/09/12 06:18:10;;;;;;;19.38;17.30;;;;;;;22.32;99.09;99321.78;5014942;28;20091;-87
2023/09/12 06:20:36;;;;;;;18.23;16.42;;;;;;;22.49;99.18;99306.78;5031333;28;20065;-87
2023/09/12 06:23:03;;;;;;;18.58;16.15;;;;;;;22.75;96.42;99317.41;5031296;28;20034;-87
2023/09/12 06:25:29;;;;;;;17.38;15.18;;;;;;;22.91;95.51;99334.28;5030973;28;20061;-87
2023/09/12 06:27:54;;;;;;;18.92;16.88;;;;;;;22.96;94.06;99319.69;5014755;28;20065;-87
2023/09/12 06:30:20;;;;;;;18.23;15.95;;;;;;;23.04;93.82;99325.06;5030944;28;20578;-87
2023/09/12 06:32:45;;;;;;;16.92;15.13;;;;;;;23.28;94.72;99327.81;5031179;28;20037;-87
2023/09/12 06:35:10;;;;;;;18.95;15.52;;;;;;;23.34;94.96;99289.97;5031043;28;20029;-87
2023/09/12 06:37:38;;;;;;;17.52;15.55;;;;;;;23.81;92.76;99344.44;5030258;28;20028;-87
2023/09/12 06:40:04;;;;;;;19.88;16.02;;;;;;;23.83;91.55;99321.16;5030444;28;20041;-87
2023/09/12 06:42:29;;;;;;;18.25;15.95;;;;;;;23.96;91.53;99320.69;5030587;28;20042;-87
2023/09/12 06:44:54;;;;;;;17.10;15.35;;;;;;;24.20;91.71;99309.22;5054936;28;20044;-87
2023/09/12 06:47:20;;;;;;;18.27;16.17;;;;;;;24.38;89.14;99320.53;5050817;28;20021;-87
2023/09/12 06:49:45;;;;;;;18.05;16.17;;;;;;;24.61;89.80;99318.84;5051841;28;20116;-87
2023/09/12 06:52:10;;;;;;;16.77;15.07;;;;;;;24.83;89.10;99322.63;5051945;28;20056;-87
2023/09/12 06:54:36;;;;;;;20.65;15.70;;;;;;;25.03;87.39;99315.06;5051619;28;20021;-87
2023/09/12 06:57:02;;;;;;;21.33;17.13;;;;;;;25.08;86.35;99304.75;5051385;28;20045;-87
2023/09/12 06:59:27;;;;;;;17.92;14.77;;;;;;;25.17;85.06;99312.69;5051353;28;20506;-87
2023/09/12 07:01:52;;;;;;;18.35;15.98;;;;;;;25.28;85.12;99304.31;5051890;28;20112;-86
2023/09/12 07:04:18;;;;;;;19.92;16.67;;;;;;;25.58;84.44;99319.47;5051420;28;20029;-87
2023/09/12 07:06:43;;;;;;;18.65;15.32;;;;;;;25.85;83.76;99328.81;5051666;28;20124;-88
2023/09/12 07:09:11;;;;;;;16.10;14.32;;;;;;;25.98;83.06;99327.41;5051549;28;20028;-88
2023/09/12 07:11:36;;;;;;;16.70;14.80;;;;;;;26.14;81.65;99327.28;5051366;28;20028;-87
2023/09/12 07:14:03;;;;;;;16.23;14.73;;;;;;;26.44;81.51;99332.69;5051611;28;20491;-87
2023/09/12 07:16:30;;;;;;;15.57;13.98;;;;;;;26.53;81.20;99316.44;5051365;28;20032;-87
2023/09/12 07:18:55;;;;;;;15.07;13.60;;;;;;;26.57;79.96;99317.72;5051317;28;20021;-87
2023/09/12 07:21:20;;;;;;;15.52;13.93;;;;;;;26.78;79.89;99325.03;5051245;28;20025;-87
2023/09/12 07:23:48;;;;;;;16.13;14.40;;;;;;;27.09;79.10;99326.66;5051330;28;20074;-87
2023/09/12 07:26:14;;;;;;;18.15;14.55;;;;;;;27.64;78.28;99327.16;5051255;28;20029;-87
2023/09/12 07:28:39;;;;;;;16.33;13.63;;;;;;;28.24;76.40;99325.94;5050813;28;20072;-87
2023/09/12 07:31:05;;;;;;;15.27;13.88;;;;;;;28.82;74.95;99310.47;5051446;28;20052;-87
2023/09/12 07:33:30;;;;;;;16.27;14.70;;;;;;;29.56;73.24;99317.88;5051030;28;20028;-88
2023/09/12 07:35:56;;;;;;;14.65;13.25;;;;;;;30.83;72.20;99318.78;5052600;28;20032;-87
2023/09/12 07:38:21;;;;;;;18.17;13.75;;;;;;;32.28;68.15;99320.72;5052132;28;20029;-87
2023/09/12 07:40:47;;;;;;;17.02;15.05;;;;;;;33.39;63.82;99320.84;5052710;28;20032;-87
2023/09/12 07:43:12;;;;;;;15.82;13.80;;;;;;;34.37;63.12;99328.53;5050796;28;20021;-87
2023/09/12 07:45:37;;;;;;;14.82;13.30;;;;;;;35.27;61.45;99315.66;5052120;28;20029;-87
2023/09/12 07:48:07;;;;;;;14.95;13.40;;;;;;;36.08;59.89;99329.94;5050928;28;20032;-87
2023/09/12 07:50:32;;;;;;;14.77;12.80;;;;;;;36.27;58.34;99330.50;5050595;28;20021;-87
2023/09/12 07:52:58;;;;;;;14.05;12.75;;;;;;;36.02;57.95;99329.00;5050794;28;20392;-87
2023/09/12 07:55:23;;;;;;;12.48;11.35;;;;;;;35.04;58.55;99336.31;5051783;28;20036;-87
2023/09/12 07:57:48;;;;;;;13.75;12.45;;;;;;;33.70;60.35;99323.31;5050581;28;20111;-87
2023/09/12 08:00:14;;;;;;;13.20;11.90;;;;;;;32.58;61.84;99321.94;5047325;28;20022;-88
2023/09/12 08:02:39;;;;;;;13.23;11.93;;;;;;;31.81;64.38;99324.75;5050229;28;20037;-87
2023/09/12 08:05:06;;;;;;;13.55;12.35;;;;;;;31.26;65.95;99327.94;5050418;28;20468;-88
2023/09/12 08:07:31;;;;;;;13.13;11.82;;;;;;;30.72;66.76;99307.66;5049999;28;20025;-88
2023/09/12 08:09:58;;;;;;;14.48;13.07;;;;;;;30.20;67.25;99295.06;5050355;28;20198;-86
2023/09/12 08:12:28;;;;;;;13.10;11.80;;;;;;;30.03;68.91;99324.16;5049626;28;20049;-88
2023/09/12 08:14:54;;;;;;;13.03;11.83;;;;;;;29.75;69.10;99318.94;5050199;28;20066;-88
2023/09/12 08:17:20;;;;;;;13.05;11.85;;;;;;;29.58;69.76;99322.03;5050185;28;20396;-88
2023/09/12 08:19:45;;;;;;;13.98;12.68;;;;;;;29.15;69.59;99305.31;5050211;28;20033;-87
2023/09/12 08:22:12;;;;;;;13.73;12.30;;;;;;;28.79;71.71;99287.59;5050113;28;20033;-88
2023/09/12 08:24:39;;;;;;;14.07;12.80;;;;;;;28.70;72.77;99302.19;5049618;28;20025;-88
2023/09/12 08:27:05;;;;;;;13.82;12.52;;;;;;;28.53;72.97;99312.38;5050101;28;20037;-88
2023/09/12 08:29:32;;;;;;;16.92;12.65;;;;;;;28.44;73.29;99324.25;5049964;28;20025;-88
2023/09/12 08:31:57;;;;;;;14.52;12.80;;;;;;;28.23;73.53;99302.81;5051472;28;20036;-88
2023/09/12 08:34:23;;;;;;;14.35;12.88;;;;;;;28.15;73.58;99330.59;5049891;28;20111;-88
2023/09/12 08:36:48;;;;;;;13.55;12.25;;;;;;;27.80;74.93;99284.13;5049739;28;20033;-88
2023/09/12 08:39:16;;;;;;;14.02;12.05;;;;;;;27.89;75.66;99306.22;5008944;28;20038;-88
2023/09/12 08:41:46;;;;;;;13.85;12.45;;;;;;;27.94;75.67;99311.84;4992361;28;20049;-88
2023/09/12 08:44:12;;;;;;;13.73;12.35;;;;;;;28.02;76.87;99325.94;4992688;28;20040;-88
2023/09/12 08:46:38;;;;;;;14.48;13.07;;;;;;;28.03;76.48;99314.22;5008514;28;20034;-87
2023/09/12 08:49:06;;;;;;;13.95;12.65;;;;;;;28.07;76.68;99326.19;4992772;28;20045;-88
2023/09/12 08:51:32;;;;;;;14.15;12.68;;;;;;;27.96;76.79;99315.16;4992461;28;20041;-88
2023/09/12 08:53:58;;;;;;;13.77;12.57;;;;;;;28.04;77.07;99326.56;4992643;28;20042;-88
2023/09/12 08:56:24;;;;;;;14.05;12.65;;;;;;;27.99;76.34;99333.53;5008650;28;20156;-87
2023/09/12 08:58:50;;;;;;;13.65;12.20;;;;;;;27.91;76.48;99323.78;4989043;28;20524;-88
2023/09/12 09:01:18;;;;;;;12.63;11.50;;;;;;;27.90;78.91;99327.47;4973002;28;20137;-87
2023/09/12 09:03:44;;;;;;;13.73;12.32;;;;;;;27.93;78.54;99337.78;4972802;28;20683;-88
2023/09/12 09:06:11;;;;;;;13.80;12.35;;;;;;;27.70;76.67;99324.56;4989261;28;20527;-88
2023/09/12 09:08:37;;;;;;;13.57;12.38;;;;;;;27.73;77.51;99334.91;4972662;28;20138;-87
2023/09/12 09:11:04;;;;;;;13.23;11.82;;;;;;;27.53;78.16;99315.13;5040127;28;20041;-88
2023/09/12 09:13:29;;;;;;;14.10;12.70;;;;;;;27.57;78.07;99324.41;5052131;28;20036;-88
2023/09/12 09:16:15;;;;;;;13.63;12.20;;;;;;;27.40;78.62;99307.78;5035956;28;20381;-83
2023/09/12 10:36:00;;;;;;;12.18;10.88;;;;;;;27.95;76.75;99326.91;5026326;28;20068;-94
2023/09/12 10:38:29;;;;;;;13.85;12.43;;;;;;;27.84;76.32;99307.63;5053213;28;20032;-87
2023/09/12 10:40:55;;;;;;;11.52;10.50;;;;;;;27.90;75.92;99305.22;5051828;28;20041;-89
2023/09/12 10:43:23;;;;;;;12.07;10.82;;;;;;;27.93;73.44;99302.16;5051779;28;20165;-88
2023/09/12 10:45:49;;;;;;;11.10;10.02;;;;;;;27.91;70.72;99305.03;5052935;28;20507;-88
2023/09/12 10:48:15;;;;;;;11.70;9.98;;;;;;;27.84;68.73;99296.94;5051617;28;20032;-87
2023/09/12 10:50:41;;;;;;;11.10;10.10;;;;;;;27.92;68.72;99319.25;5031120;28;20033;-90
2023/09/12 10:53:14;;;;;;;13.75;10.43;;;;;;;27.72;66.02;99294.91;5031843;28;20033;-88
2023/09/12 10:55:40;;;;;;;14.02;10.57;;;;;;;27.84;68.19;99313.00;5067671;28;20487;-88
2023/09/12 10:58:10;;;;;;;11.98;10.88;;;;;;;27.82;68.32;99312.38;5052774;28;20029;-87
2023/09/12 11:00:37;;;;;;;13.00;10.57;;;;;;;27.52;65.62;99276.84;5050971;28;20049;-88
2023/09/12 11:03:27;;;;;;;11.32;10.18;;;;;;;27.74;65.42;99314.34;5050951;28;20183;-88
2023/09/12 11:05:54;;;;;;;12.30;11.00;;;;;;;27.55;67.67;99284.47;5048805;28;20025;-88
2023/09/12 11:08:20;;;;;;;10.00;9.07;;;;;;;27.65;67.10;99307.44;5051724;28;20025;-88
2023/09/12 11:11:20;;;;;;;12.10;10.48;;;;;;;27.67;67.71;99316.06;5050904;28;20033;-88
2023/09/12 11:13:46;;;;;;;11.17;9.90;;;;;;;27.71;68.22;99318.19;5031377;28;20038;-88
2023/09/12 11:16:20;;;;;;;11.50;10.40;;;;;;;27.74;68.06;99308.97;5030173;28;20046;-88
2023/09/12 11:19:11;;;;;;;11.70;10.60;;;;;;;27.61;67.24;99290.91;5029917;28;20106;-88
2023/09/12 11:21:37;;;;;;;12.50;10.02;;;;;;;27.78;67.91;99308.41;5013462;28;20120;-89
2023/09/12 11:24:03;;;;;;;11.52;10.43;;;;;;;27.78;67.56;99300.38;5013701;28;20101;-88
2023/09/12 11:26:29;;;;;;;10.52;9.60;;;;;;;27.81;66.01;99301.81;5030181;28;20493;-88
2023/09/12 11:28:55;;;;;;;10.70;9.70;;;;;;;27.81;66.73;99305.38;5029790;28;20128;-88
2023/09/12 11:31:27;;;;;;;11.73;10.63;;;;;;;27.84;67.07;99309.47;5013593;28;20491;-88
2023/09/12 11:33:53;;;;;;;10.35;9.45;;;;;;;27.84;66.65;99307.63;5029678;28;20091;-89
2023/09/12 11:36:19;;;;;;;11.05;9.95;;;;;;;27.87;67.66;99308.28;5028952;28;20046;-88
2023/09/12 11:38:49;;;;;;;9.80;8.80;;;;;;;27.90;68.12;99294.53;5009744;28;20076;-88
2023/09/12 11:41:14;;;;;;;10.52;9.63;;;;;;;27.96;69.31;99307.97;4993572;28;20452;-88
2023/09/12 11:43:40;;;;;;;10.60;9.68;;;;;;;28.00;69.41;99305.72;4993478;28;20096;-88
2023/09/12 11:46:07;;;;;;;11.98;10.27;;;;;;;27.90;68.19;99284.66;4993593;28;20145;-89
2023/09/12 11:48:33;;;;;;;14.57;9.88;;;;;;;28.04;68.77;99291.75;5009981;28;20104;-88
2023/09/12 11:50:58;;;;;;;11.63;10.48;;;;;;;28.06;68.26;99287.06;4993098;28;20034;-89
2023/09/12 11:53:26;;;;;;;11.18;10.05;;;;;;;28.16;68.73;99302.78;4993587;28;20030;-88
2023/09/12 11:55:54;;;;;;;12.23;10.05;;;;;;;28.08;67.71;99281.50;4993358;28;20037;-89
2023/09/12 11:58:20;;;;;;;10.77;9.68;;;;;;;28.01;66.95;99262.69;4993530;28;20115;-88
2023/09/12 12:00:50;;;;;;;11.75;10.75;;;;;;;28.04;65.46;99266.84;5009586;28;20117;-88
2023/09/12 12:03:17;;;;;;;12.50;9.80;;;;;;;28.15;66.10;99285.06;4993385;28;20022;-88
2023/09/12 12:05:42;;;;;;;12.25;10.55;;;;;;;28.20;65.25;99297.88;5001727;28;20028;-89
2023/09/12 12:08:09;;;;;;;11.15;10.02;;;;;;;28.15;64.57;99290.44;5012873;28;20480;-88
2023/09/12 12:10:35;;;;;;;11.77;10.68;;;;;;;28.06;64.74;99284.38;5026956;28;20128;-89
2023/09/12 12:13:01;;;;;;;11.77;10.65;;;;;;;28.09;64.38;99285.81;5030507;28;20525;-88
2023/09/12 12:15:29;;;;;;;11.40;10.38;;;;;;;28.10;66.04;99288.31;5030428;28;20091;-88
2023/09/12 12:17:55;;;;;;;11.60;10.50;;;;;;;28.01;65.02;99270.72;5029992;28;20026;-89
2023/09/12 12:20:23;;;;;;;10.73;9.63;;;;;;;28.00;65.18;99292.34;5030366;28;20029;-88
2023/09/12 12:22:51;;;;;;;11.32;10.23;;;;;;;27.98;64.89;99291.69;5039729;28;20025;-89
2023/09/12 12:25:17;;;;;;;11.98;10.73;;;;;;;27.94;64.78;99293.09;5048822;28;20029;-89
2023/09/12 12:27:42;;;;;;;11.70;10.68;;;;;;;27.98;65.50;99297.03;5048693;28;20025;-88
2023/09/12 12:30:10;;;;;;;11.18;10.18;;;;;;;28.00;65.51;99293.16;5049686;28;20438;-88